createdAt,value
2022-08-03T00:01:45.602Z,65.08
2022-08-03T00:04:13.489Z,64.98
2022-08-03T00:06:41.458Z,64.76
2022-08-03T00:09:09.985Z,65.53
2022-08-03T00:11:38.482Z,64.77
2022-08-03T00:14:07.771Z,65.77
2022-08-03T00:16:36.026Z,64.99
2022-08-03T00:19:04.329Z,65.72
2022-08-03T00:21:32.348Z,65.91
2022-08-03T00:24:00.154Z,66.50
2022-08-03T00:26:28.072Z,65.23
2022-08-03T00:28:55.898Z,65.11
2022-08-03T00:31:51.379Z,65.64
2022-08-03T00:34:11.669Z,65.12
2022-08-03T00:36:40.642Z,65.17
2022-08-03T00:39:08.973Z,66.86
2022-08-03T00:41:36.865Z,65.72
2022-08-03T00:44:04.962Z,65.76
2022-08-03T00:46:32.823Z,66.19
2022-08-03T00:49:01.184Z,66.15
2022-08-03T00:51:29.098Z,66.48
2022-08-03T00:53:56.915Z,66.00
2022-08-03T00:56:25.103Z,65.87
2022-08-03T00:58:57.015Z,66.81
2022-08-03T01:01:25.001Z,66.40
2022-08-03T01:03:52.969Z,66.69
2022-08-03T01:06:30.362Z,67.27
2022-08-03T01:09:18.705Z,68.24
2022-08-03T01:12:29.794Z,68.94
2022-08-03T01:15:08.080Z,68.30
2022-08-03T01:17:57.646Z,68.85
2022-08-03T01:20:31.555Z,69.33
2022-08-03T01:23:31.307Z,67.53
2022-08-03T01:27:00.084Z,68.86
2022-08-03T01:30:12.746Z,68.41
2022-08-03T01:33:02.785Z,68.04
2022-08-03T01:35:50.751Z,68.63
2022-08-03T01:38:51.238Z,69.71
2022-08-03T01:41:29.350Z,68.84
2022-08-03T01:44:27.213Z,67.03
2022-08-03T01:46:51.710Z,66.64
2022-08-03T01:49:19.693Z,66.94
2022-08-03T01:51:58.599Z,66.20
2022-08-03T01:54:40.833Z,67.84
2022-08-03T01:57:10.520Z,66.58
2022-08-03T01:59:41.141Z,67.21
2022-08-03T02:02:28.074Z,68.39
2022-08-03T02:05:04.701Z,67.10
2022-08-03T02:07:35.581Z,66.88
2022-08-03T02:13:01.599Z,67.36
2022-08-03T02:15:33.693Z,67.43
2022-08-03T02:18:05.319Z,67.43
2022-08-03T02:20:36.460Z,66.91
2022-08-03T02:23:04.794Z,68.07
2022-08-03T02:25:37.426Z,67.64
2022-08-03T02:28:22.380Z,69.25
2022-08-03T02:30:56.067Z,68.65
2022-08-03T02:33:37.594Z,69.26
2022-08-03T02:36:08.545Z,67.86
2022-08-03T02:38:42.897Z,67.52
2022-08-03T02:41:18.216Z,68.29
2022-08-03T02:44:06.616Z,69.29
2022-08-03T02:46:41.579Z,67.79
2022-08-03T02:49:50.054Z,69.18
2022-08-03T02:52:02.766Z,67.99
2022-08-03T02:54:31.169Z,67.72
2022-08-03T02:57:00.726Z,67.52
2022-08-03T02:59:31.389Z,67.32
2022-08-03T03:02:02.452Z,67.35
2022-08-03T03:04:33.089Z,67.58
2022-08-03T03:07:04.347Z,67.45
2022-08-03T03:09:41.651Z,68.49
2022-08-03T03:12:14.161Z,68.10
2022-08-03T03:14:42.524Z,68.75
2022-08-03T03:17:12.972Z,68.19
2022-08-03T03:19:43.173Z,68.65
2022-08-03T03:22:11.787Z,67.53
2022-08-03T03:24:42.551Z,68.13
2022-08-03T03:27:10.784Z,68.62
2022-08-03T03:29:45.127Z,68.08
2022-08-03T03:32:13.704Z,68.57
2022-08-03T03:34:44.247Z,68.10
2022-08-03T03:37:12.283Z,68.03
2022-08-03T03:39:40.304Z,68.33
2022-08-03T03:42:08.328Z,67.58
2022-08-03T03:44:36.444Z,68.19
2022-08-03T03:47:04.631Z,68.19
2022-08-03T03:49:33.176Z,67.97
2022-08-03T03:52:01.070Z,67.97
2022-08-03T03:54:43.529Z,69.45
2022-08-03T03:57:14.518Z,67.78
2022-08-03T03:59:43.495Z,67.66
2022-08-03T04:02:12.638Z,67.89
2022-08-03T04:04:59.345Z,68.20
2022-08-03T04:07:46.620Z,67.89
2022-08-03T04:10:39.814Z,68.83
2022-08-03T04:13:12.398Z,69.15
2022-08-03T04:15:41.608Z,69.10
2022-08-03T04:18:15.722Z,69.31
2022-08-03T04:20:49.075Z,69.78
2022-08-03T04:23:22.478Z,68.30
2022-08-03T04:25:54.622Z,68.36
2022-08-03T04:28:30.636Z,67.94
2022-08-03T04:31:03.434Z,68.96
2022-08-03T04:33:35.805Z,68.34
2022-08-03T04:36:09.053Z,67.71
2022-08-03T04:38:55.446Z,68.55
2022-08-03T04:41:27.706Z,68.68
2022-08-03T04:43:59.032Z,67.86
2022-08-03T04:46:38.528Z,68.07
2022-08-03T04:49:07.968Z,68.58
2022-08-03T04:51:39.031Z,68.41
2022-08-03T04:54:07.592Z,68.06
2022-08-03T04:56:36.375Z,67.77
2022-08-03T04:59:04.189Z,67.71
2022-08-03T05:01:32.059Z,67.17
2022-08-03T05:04:00.391Z,67.77
2022-08-03T05:06:28.639Z,67.42
2022-08-03T05:08:56.944Z,66.91
2022-08-03T05:11:24.766Z,67.15
2022-08-03T05:13:52.662Z,67.26
2022-08-03T05:16:20.539Z,68.01
2022-08-03T05:18:48.331Z,68.01
2022-08-03T05:21:17.061Z,67.79
2022-08-03T05:23:45.298Z,67.46
2022-08-03T05:26:13.295Z,67.83
2022-08-03T05:28:51.370Z,67.90
2022-08-03T05:31:20.128Z,68.07
2022-08-03T05:33:49.397Z,67.88
2022-08-03T05:36:17.247Z,68.43
2022-08-03T05:38:45.045Z,67.94
2022-08-03T05:41:21.089Z,68.23
2022-08-03T05:43:55.751Z,68.17
2022-08-03T05:46:24.107Z,68.12
2022-08-03T05:48:52.459Z,67.49
2022-08-03T05:51:20.607Z,68.19
2022-08-03T05:53:48.919Z,67.74
2022-08-03T05:56:17.114Z,67.26
2022-08-03T05:58:46.992Z,67.93
2022-08-03T06:01:17.154Z,67.10
2022-08-03T06:03:46.673Z,66.94
2022-08-03T06:06:15.150Z,66.27
2022-08-03T06:08:45.481Z,66.75
2022-08-03T06:11:13.978Z,66.13
2022-08-03T06:13:43.246Z,65.54
2022-08-03T06:16:11.505Z,65.74
2022-08-03T06:18:40.605Z,65.26
2022-08-03T06:21:15.595Z,65.14
2022-08-03T06:23:54.499Z,64.94
2022-08-03T06:26:28.739Z,64.81
2022-08-03T06:28:57.043Z,65.28
2022-08-03T06:31:33.466Z,64.83
2022-08-03T06:34:32.196Z,64.83
2022-08-03T06:36:53.511Z,64.69
2022-08-03T06:39:23.520Z,64.28
2022-08-03T06:41:53.064Z,64.01
2022-08-03T06:44:21.044Z,63.69
2022-08-03T06:46:48.930Z,63.18
2022-08-03T06:49:16.875Z,62.44
2022-08-03T06:52:03.302Z,60.46
2022-08-03T06:54:33.260Z,60.91
2022-08-03T06:57:01.461Z,59.04
2022-08-03T07:00:08.895Z,59.60
2022-08-03T07:02:19.986Z,58.87
2022-08-03T07:04:49.211Z,58.87
2022-08-03T07:07:17.615Z,58.66
2022-08-03T07:09:56.616Z,57.58
2022-08-03T07:12:28.667Z,57.04
2022-08-03T07:15:01.230Z,56.48
2022-08-03T07:17:33.739Z,54.81
2022-08-03T07:20:05.084Z,53.81
2022-08-03T07:22:33.737Z,54.72
2022-08-03T07:25:02.330Z,54.18
2022-08-03T07:27:30.550Z,54.13
2022-08-03T07:29:59.336Z,53.68
2022-08-03T07:32:31.781Z,52.48
2022-08-03T07:35:01.208Z,52.86
2022-08-03T07:37:30.218Z,51.51
2022-08-03T07:39:59.129Z,52.10
2022-08-03T07:42:29.074Z,51.49
2022-08-03T07:45:16.655Z,51.17
2022-08-03T07:47:53.209Z,52.18
2022-08-03T07:50:23.023Z,51.58
2022-08-03T07:52:53.299Z,50.64
2022-08-03T07:55:25.256Z,51.28
2022-08-03T07:58:24.328Z,50.55
2022-08-03T08:00:53.468Z,50.08
2022-08-03T08:03:24.497Z,50.32
2022-08-03T08:05:57.600Z,49.42
2022-08-03T08:08:25.716Z,50.15
2022-08-03T08:11:12.709Z,49.10
2022-08-03T08:13:40.947Z,49.60
2022-08-03T08:16:08.973Z,49.43
2022-08-03T08:18:37.137Z,48.21
2022-08-03T08:21:05.138Z,48.66
2022-08-03T08:23:42.500Z,48.98
2022-08-03T08:26:12.056Z,47.96
2022-08-03T08:28:40.464Z,47.52
2022-08-03T08:31:08.841Z,47.17
2022-08-03T08:34:02.731Z,46.31
2022-08-03T08:36:24.861Z,43.94
2022-08-03T08:38:52.916Z,43.05
2022-08-03T08:41:20.999Z,42.59
2022-08-03T08:43:49.249Z,42.81
2022-08-03T08:46:23.355Z,41.39
2022-08-03T08:48:55.891Z,40.96
2022-08-03T08:51:54.644Z,40.54
2022-08-03T08:54:22.084Z,38.88
2022-08-03T08:57:02.457Z,38.04
2022-08-03T08:59:48.931Z,38.62
2022-08-03T09:06:15.470Z,39.31
2022-08-03T09:09:07.149Z,38.75
2022-08-03T09:11:54.498Z,39.48
2022-08-03T09:14:37.040Z,39.40
2022-08-03T09:17:24.105Z,38.10
2022-08-03T09:20:09.439Z,37.18
2022-08-03T09:23:19.165Z,36.69
2022-08-03T09:25:59.912Z,37.46
2022-08-03T09:28:58.848Z,38.75
2022-08-03T09:31:49.641Z,37.82
2022-08-03T09:34:20.834Z,38.75
2022-08-03T09:36:54.272Z,37.76
2022-08-03T09:39:41.678Z,36.23
2022-08-03T09:42:18.858Z,36.48
2022-08-03T09:45:10.969Z,37.53
2022-08-03T09:47:44.621Z,35.79
2022-08-03T09:50:13.139Z,38.20
2022-08-03T09:52:52.101Z,36.28
2022-08-03T09:56:30.946Z,37.50
2022-08-03T09:58:10.705Z,37.39
2022-08-03T10:01:06.491Z,35.12
2022-08-03T10:04:02.738Z,35.18
2022-08-03T10:06:29.099Z,34.44
2022-08-03T10:09:16.852Z,32.34
2022-08-03T10:11:47.678Z,33.21
2022-08-03T10:14:19.568Z,32.20
2022-08-03T10:16:49.335Z,31.29
2022-08-03T10:19:18.001Z,33.88
2022-08-03T10:21:55.725Z,31.17
2022-08-03T10:24:34.338Z,32.40
2022-08-03T10:27:07.554Z,31.89
2022-08-03T10:29:40.010Z,32.09
2022-08-03T10:33:02.193Z,32.00
2022-08-03T10:35:31.612Z,30.51
2022-08-03T10:38:01.890Z,30.61
2022-08-03T10:40:51.119Z,31.12
2022-08-03T10:44:14.460Z,31.06
2022-08-03T10:46:45.280Z,30.58
2022-08-03T10:49:34.738Z,30.77
2022-08-03T10:52:13.714Z,30.66
2022-08-03T10:55:12.250Z,32.48
2022-08-03T10:57:58.329Z,29.44
2022-08-03T11:00:30.635Z,32.35
2022-08-03T11:03:06.605Z,31.61
2022-08-03T11:05:49.643Z,31.80
2022-08-03T11:08:37.203Z,32.30
2022-08-03T11:11:21.477Z,32.12
2022-08-03T11:14:21.528Z,29.67
2022-08-03T11:17:15.320Z,30.44
2022-08-03T11:19:58.000Z,28.90
2022-08-03T11:22:49.236Z,29.60
2022-08-03T11:25:53.431Z,28.87
2022-08-03T11:28:29.061Z,28.86
2022-08-03T11:31:48.837Z,28.81
2022-08-03T11:34:25.242Z,28.11
2022-08-03T11:37:28.538Z,29.48
2022-08-03T11:39:58.912Z,28.94
2022-08-03T11:42:27.719Z,28.68
2022-08-03T11:45:01.120Z,28.42
2022-08-03T11:47:30.467Z,27.30
2022-08-03T11:50:02.330Z,28.40
2022-08-03T11:52:39.691Z,27.89
2022-08-03T11:55:16.287Z,29.02
2022-08-03T11:59:17.516Z,29.32
2022-08-03T12:00:43.264Z,29.53
2022-08-03T12:03:16.562Z,29.48
2022-08-03T12:05:52.779Z,29.97
2022-08-03T12:08:32.763Z,30.52
2022-08-03T12:11:07.470Z,31.24
2022-08-03T12:14:35.674Z,29.51
2022-08-03T12:16:39.062Z,29.32
2022-08-03T12:19:07.168Z,30.21
2022-08-03T12:21:35.236Z,31.29
2022-08-03T12:24:05.855Z,30.34
2022-08-03T12:26:58.351Z,30.67
2022-08-03T12:29:29.849Z,31.25
2022-08-03T12:31:58.138Z,30.21
2022-08-03T12:34:47.353Z,30.28
2022-08-03T12:37:23.859Z,30.71
2022-08-03T12:40:10.619Z,29.23
2022-08-03T12:42:45.988Z,30.09
2022-08-03T12:45:41.430Z,30.17
2022-08-03T12:48:13.492Z,31.30
2022-08-03T12:51:09.382Z,29.64
2022-08-03T12:56:31.891Z,29.93
2022-08-03T12:59:02.502Z,29.90
2022-08-03T13:01:54.845Z,27.92
2022-08-03T13:04:35.327Z,26.68
2022-08-03T13:07:12.631Z,26.01
2022-08-03T13:10:07.604Z,27.11
2022-08-03T13:12:49.069Z,25.40
2022-08-03T13:15:17.515Z,27.31
2022-08-03T13:17:45.857Z,28.17
2022-08-03T13:20:16.366Z,26.71
2022-08-03T13:22:53.069Z,25.59
2022-08-03T13:25:27.038Z,26.93
2022-08-03T13:28:12.416Z,26.32
2022-08-03T13:30:44.579Z,26.42
2022-08-03T13:33:14.704Z,27.28
2022-08-03T13:35:42.719Z,27.79
2022-08-03T13:38:10.991Z,27.14
2022-08-03T13:40:42.393Z,27.01
2022-08-03T13:43:10.665Z,28.61
2022-08-03T13:45:39.660Z,29.05
2022-08-03T13:48:07.853Z,29.55
2022-08-03T13:50:39.782Z,29.54
2022-08-03T13:53:10.765Z,29.81
2022-08-03T13:55:41.186Z,30.13
2022-08-03T13:58:12.522Z,29.39
2022-08-03T14:00:40.688Z,29.11
2022-08-03T14:03:14.072Z,29.96
2022-08-03T14:05:44.731Z,29.27
2022-08-03T14:08:13.302Z,29.54
2022-08-03T14:10:44.500Z,28.23
2022-08-03T14:13:16.747Z,28.58
2022-08-03T14:15:50.095Z,27.42
2022-08-03T14:18:29.061Z,27.23
2022-08-03T14:21:06.652Z,27.67
2022-08-03T14:23:38.084Z,27.83
2022-08-03T14:26:10.559Z,27.11
2022-08-03T14:28:38.629Z,27.46
2022-08-03T14:31:12.987Z,27.80
2022-08-03T14:33:55.662Z,27.91
2022-08-03T14:36:23.626Z,27.49
2022-08-03T14:38:51.632Z,28.50
2022-08-03T14:41:20.425Z,28.19
2022-08-03T14:44:01.426Z,29.20
2022-08-03T14:46:31.681Z,28.39
2022-08-03T14:50:33.567Z,28.79
2022-08-03T14:51:53.501Z,25.23
2022-08-03T14:54:23.183Z,27.18
2022-08-03T14:56:51.694Z,28.05
2022-08-03T14:59:19.684Z,27.84
2022-08-03T15:02:02.579Z,25.88
2022-08-03T15:04:32.047Z,26.97
2022-08-03T15:07:00.191Z,26.40
2022-08-03T15:09:28.447Z,25.85
2022-08-03T15:11:56.580Z,26.38
2022-08-03T15:14:32.285Z,24.62
2022-08-03T15:17:03.977Z,26.44
2022-08-03T15:20:03.680Z,27.10
2022-08-03T15:22:24.981Z,26.46
2022-08-03T15:26:02.166Z,26.62
2022-08-03T15:28:03.306Z,26.36
2022-08-03T15:30:36.243Z,27.74
2022-08-03T15:33:06.974Z,27.12
2022-08-03T15:35:35.640Z,27.65
2022-08-03T15:38:08.716Z,28.68
2022-08-03T15:40:37.853Z,28.23
2022-08-03T15:43:05.949Z,29.05
2022-08-03T15:45:35.311Z,29.15
2022-08-03T15:48:07.754Z,28.55
2022-08-03T15:50:36.266Z,28.74
2022-08-03T15:53:05.292Z,28.71
2022-08-03T15:55:33.920Z,28.89
2022-08-03T15:59:10.240Z,29.10
2022-08-03T16:00:49.777Z,29.26
2022-08-03T16:03:17.738Z,29.04
2022-08-03T16:05:45.593Z,28.84
2022-08-03T16:08:14.058Z,29.06
2022-08-03T16:10:42.089Z,29.14
2022-08-03T16:13:10.153Z,29.34
2022-08-03T16:15:39.058Z,29.54
2022-08-03T16:18:07.628Z,29.55
2022-08-03T16:20:35.745Z,29.27
2022-08-03T16:23:11.610Z,29.18
2022-08-03T16:25:42.793Z,28.91
2022-08-03T16:28:14.514Z,29.42
2022-08-03T16:30:46.452Z,29.43
2022-08-03T16:33:18.725Z,29.77
2022-08-03T16:35:49.752Z,30.13
2022-08-03T16:38:19.266Z,29.88
2022-08-03T16:40:53.405Z,30.73
2022-08-03T16:43:24.945Z,30.60
2022-08-03T16:45:53.464Z,30.87
2022-08-03T16:48:21.400Z,30.99
2022-08-03T16:50:52.192Z,31.35
2022-08-03T16:53:51.655Z,31.93
2022-08-03T16:56:10.974Z,34.87
2022-08-03T16:58:42.117Z,34.72
2022-08-03T17:01:21.559Z,34.58
2022-08-03T17:04:03.424Z,35.39
2022-08-03T17:06:44.937Z,35.50
2022-08-03T17:09:18.194Z,34.90
2022-08-03T17:11:48.804Z,35.46
2022-08-03T17:14:28.567Z,36.18
2022-08-03T17:17:01.524Z,36.21
2022-08-03T17:19:32.421Z,36.35
2022-08-03T17:22:15.979Z,36.40
2022-08-03T17:24:51.872Z,37.57
2022-08-03T17:28:42.346Z,37.79
2022-08-03T17:30:18.875Z,38.29
2022-08-03T17:32:56.537Z,39.58
2022-08-03T17:35:34.592Z,39.43
2022-08-03T17:38:08.932Z,40.36
2022-08-03T17:40:48.110Z,40.30
2022-08-03T17:43:44.365Z,40.22
2022-08-03T17:46:10.974Z,40.71
2022-08-03T17:48:42.097Z,42.73
2022-08-03T17:51:53.279Z,44.50
2022-08-03T17:58:06.247Z,45.43
2022-08-03T18:00:56.055Z,43.61
2022-08-03T18:03:58.340Z,46.25
2022-08-03T18:06:38.231Z,45.62
2022-08-03T18:10:04.944Z,45.75
2022-08-03T18:12:29.517Z,47.08
2022-08-03T18:15:01.508Z,46.48
2022-08-03T18:17:55.179Z,47.06
2022-08-03T18:20:34.139Z,46.80
2022-08-03T18:23:25.318Z,47.66
2022-08-03T18:26:10.696Z,48.62
2022-08-03T18:28:40.839Z,46.92
2022-08-03T18:31:59.571Z,50.10
2022-08-03T18:34:32.540Z,48.66
2022-08-03T18:36:55.842Z,47.99
2022-08-03T18:39:25.026Z,47.88
2022-08-03T18:41:53.074Z,47.89
2022-08-03T18:44:53.510Z,49.13
2022-08-03T18:47:51.755Z,50.24
2022-08-03T18:50:39.101Z,52.25
2022-08-03T18:54:01.807Z,52.63
2022-08-03T18:56:51.729Z,52.03
2022-08-03T18:59:54.847Z,51.56
2022-08-03T19:03:07.192Z,52.59
2022-08-03T19:05:57.774Z,52.75
2022-08-03T19:08:48.197Z,53.55
2022-08-03T19:12:14.305Z,53.44
2022-08-03T19:14:42.289Z,53.63
2022-08-03T19:17:14.166Z,52.87
2022-08-03T19:19:52.576Z,52.59
2022-08-03T19:22:21.580Z,52.08
2022-08-03T19:24:55.332Z,52.90
2022-08-03T19:27:28.133Z,52.49
2022-08-03T19:30:04.113Z,52.21
2022-08-03T19:32:35.252Z,52.70
2022-08-03T19:35:13.438Z,53.10
2022-08-03T19:37:47.253Z,52.70
2022-08-03T19:40:15.354Z,52.88
2022-08-03T19:42:54.993Z,54.50
2022-08-03T19:46:04.933Z,54.49
2022-08-03T19:48:32.685Z,55.51
2022-08-03T19:53:54.333Z,54.04
2022-08-03T19:56:25.509Z,54.37
2022-08-03T19:58:57.614Z,54.04
2022-08-03T20:01:28.163Z,54.94
2022-08-03T20:03:56.733Z,54.62
2022-08-03T20:06:24.809Z,54.59
2022-08-03T20:08:54.622Z,54.54
2022-08-03T20:11:28.630Z,57.43
2022-08-03T20:13:58.502Z,54.84
2022-08-03T20:16:27.037Z,55.26
2022-08-03T20:18:54.989Z,55.43
2022-08-03T20:21:31.606Z,55.84
2022-08-03T20:24:23.667Z,55.92
2022-08-03T20:26:55.045Z,56.29
2022-08-03T20:30:05.158Z,58.33
2022-08-03T20:32:24.961Z,56.12
2022-08-03T20:34:53.347Z,57.06
2022-08-03T20:37:21.596Z,56.16
2022-08-03T20:39:49.974Z,57.06
2022-08-03T20:42:21.205Z,56.08
2022-08-03T20:45:04.691Z,55.74
2022-08-03T20:47:41.647Z,57.80
2022-08-03T20:50:19.233Z,56.13
2022-08-03T20:52:50.140Z,56.85
2022-08-03T20:55:47.071Z,56.65
2022-08-03T20:58:07.906Z,55.97
2022-08-03T21:00:35.773Z,55.88
2022-08-03T21:03:04.041Z,55.99
2022-08-03T21:05:51.207Z,56.49
2022-08-03T21:08:23.195Z,58.42
2022-08-03T21:10:53.893Z,58.07
2022-08-03T21:13:03.088Z,54.22
2022-08-03T21:13:04.654Z,45.25
2022-08-03T21:13:43.374Z,58.39
2022-08-03T21:16:15.017Z,57.96
2022-08-03T21:18:51.434Z,59.82
2022-08-03T21:21:22.966Z,58.32
2022-08-03T21:23:54.350Z,59.61
2022-08-03T21:26:27.591Z,60.40
2022-08-03T21:28:56.999Z,58.39
2022-08-03T21:31:26.823Z,58.31
2022-08-03T21:33:58.452Z,59.56
2022-08-03T21:36:29.665Z,59.66
2022-08-03T21:38:59.343Z,59.79
2022-08-03T21:41:30.583Z,60.25
2022-08-03T21:43:59.581Z,59.97
2022-08-03T21:46:35.372Z,60.46
2022-08-03T21:50:05.026Z,59.56
2022-08-03T21:51:59.782Z,59.05
2022-08-03T21:54:38.798Z,60.90
2022-08-03T21:57:34.222Z,60.38
2022-08-03T22:00:21.597Z,61.37
2022-08-03T22:02:55.385Z,59.54
2022-08-03T22:05:42.910Z,59.73
2022-08-03T22:08:14.019Z,60.34
2022-08-03T22:10:45.040Z,60.96
2022-08-03T22:13:19.495Z,60.60
2022-08-03T22:16:04.572Z,59.35
2022-08-03T22:18:32.499Z,60.51
2022-08-03T22:21:02.315Z,60.70
2022-08-03T22:23:31.661Z,60.46
2022-08-03T22:26:04.755Z,60.30
2022-08-03T22:28:33.809Z,60.15
2022-08-03T22:31:30.622Z,59.88
2022-08-03T22:33:52.789Z,59.64
2022-08-03T22:36:24.391Z,60.33
2022-08-03T22:38:53.337Z,60.28
2022-08-03T22:41:22.102Z,59.71
2022-08-03T22:43:50.841Z,59.79
2022-08-03T22:46:22.509Z,62.93
2022-08-03T22:48:51.726Z,60.57
2022-08-03T22:51:20.297Z,61.40
2022-08-03T22:53:48.651Z,60.76
2022-08-03T22:56:16.435Z,61.25
2022-08-03T22:58:44.253Z,60.79
2022-08-03T23:01:20.519Z,61.30
2022-08-03T23:04:02.203Z,62.26
2022-08-03T23:06:40.611Z,62.28
2022-08-03T23:09:12.692Z,61.09
2022-08-03T23:11:46.018Z,61.51
2022-08-03T23:14:18.749Z,62.86
2022-08-03T23:16:49.882Z,61.79
2022-08-03T23:19:25.028Z,62.43
2022-08-03T23:22:02.538Z,62.21
2022-08-03T23:24:36.382Z,62.21
2022-08-03T23:27:07.971Z,61.99
2022-08-03T23:29:42.341Z,62.25
2022-08-03T23:32:10.938Z,62.39
2022-08-03T23:34:58.905Z,62.16
2022-08-03T23:37:27.232Z,62.71
2022-08-03T23:39:57.431Z,62.31
2022-08-03T23:42:27.452Z,63.88
2022-08-03T23:45:05.405Z,65.88
2022-08-03T23:47:46.251Z,63.34
2022-08-03T23:50:15.539Z,62.92
2022-08-03T23:53:12.329Z,65.14
2022-08-03T23:56:06.618Z,65.15
2022-08-03T23:58:57.460Z,63.63
